x

Saginaw Bay Light #1, Mi (sblm4) Weather Station

7:50am - Sun 23rd Nov 2014 All times are CST. -6 hours from GMT.

  • Wind
    18mph, 20mph gusts
  • Air Temp 44°f
  • Sea Pressure 1010.2mb
  • Saginaw Bay Light #1, Mi
  • Saginaw Bay Light #1, Mi

More Historic Weather Station data

Upgrade to MSW Pro to gain access to the past 30 days of data for over 8000 Wavebouys and Weather Stations around the globe.

Join Pro

Comparision Forecast

View Surf forecast
   
Sun 11/23 7:50am 18 20 mph 1010.2mb 44f
7:40am 18 20 mph 1010.2mb 44f
7:30am 20 21 mph 1010.2mb 44f
7:20am 17 18 mph 1010.2mb 43f
7:10am 16 18 mph 1009.8mb 42f
7:00am 17 18 mph 1009.8mb 43f
6:50am 17 20 mph 1009.8mb 43f
6:40am 18 20 mph 1010.2mb 42f
6:30am 20 22 mph 1010.2mb 43f
6:20am 21 24 mph 1010.2mb 44f
6:10am 23 24 mph 1010.2mb 44f
6:00am 23 24 mph 1010.2mb 45f
5:50am 22 23 mph 1010.2mb 44f
5:40am 18 20 mph 1009.8mb 43f
5:30am 17 21 mph 1010.2mb 44f
5:20am 17 20 mph 1010.2mb 44f
5:10am 18 20 mph 1010.5mb 44f
5:00am 18 20 mph 1010.5mb 44f
4:50am 18 20 mph 1010.5mb 43f
4:40am 20 21 mph 1010.2mb 44f
4:30am 20 21 mph 1010.5mb 43f
4:20am 18 20 mph 1010.5mb 44f
4:10am 15 16 mph 1010.5mb 42f
4:00am 8 9 mph 1010.5mb 41f
3:50am 7 10 mph 1010.5mb 42f
3:40am 10 13 mph 1010.8mb 42f
3:30am 13
mph
1010.5mb 42f
3:20am 11 13 mph 1010.8mb 42f
3:10am 11
mph
1010.8mb 41f
3:00am 11
mph
1010.8mb 41f
2:50am 11 13 mph 1010.8mb 40f
2:40am 10 11 mph 1010.8mb 40f
2:30am 11 15 mph 1011.2mb 41f
2:20am 13 14 mph 1011.2mb 41f
2:10am 9 14 mph 1011.2mb 40f
2:00am 14
mph
1011.2mb 42f
1:50am 13 14 mph 1011.5mb 43f
1:40am 13
mph
1011.2mb 41f
1:30am 11 13 mph 1011.5mb 42f
1:20am 11
mph
1011.2mb 43f
1:10am 11 14 mph 1011.2mb 42f
1:00am 14 15 mph 1011.2mb 43f
12:50am 16
mph
1011.2mb 45f
12:40am 16
mph
1011.2mb 44f
12:30am 15 17 mph 1011.2mb 43f
12:20am 17 18 mph 1011.5mb 44f
12:10am 16 17 mph 1011.5mb 43f
12:00am 15 16 mph 1011.5mb 42f
Sat 11/22 11:50pm 16 18 mph 1011.5mb 43f
11:40pm 18 20 mph 1011.5mb 43f
11:30pm 17 20 mph 1011.5mb 42f
11:20pm 17 18 mph 1011.5mb 43f
11:10pm 18 20 mph 1011.5mb 43f
11:00pm 17 18 mph 1011.5mb 42f
10:50pm 16 17 mph 1011.2mb 42f
10:40pm 14 15 mph 1011.2mb 42f
10:30pm 14 16 mph 1011.2mb 42f
10:20pm 15 16 mph 1011.2mb 42f
10:10pm 17
mph
1011.2mb 42f
10:00pm 16 18 mph 1011.2mb 42f
9:50pm 16 17 mph 1011.2mb 42f
9:40pm 13 15 mph 1010.8mb 41f
9:30pm 13
mph
1010.8mb 41f
9:20pm 10 11 mph 1010.8mb 41f
9:10pm 8 10 mph 1010.8mb 40f
9:00pm 11 13 mph 1010.8mb 41f
8:50pm 11
mph
1010.8mb 41f
8:40pm 11
mph
1010.8mb 41f
8:30pm 9 10 mph 1010.8mb 40f
8:20pm 10 11 mph 1010.8mb 40f
8:10pm 10 11 mph 1010.8mb 40f
8:00pm 11
mph
1010.8mb 40f
7:50pm 10 14 mph 1010.8mb 40f
7:40pm 14 15 mph 1010.8mb 40f
7:30pm 14 15 mph 1010.8mb 40f
7:20pm 14 16 mph 1010.8mb 40f
7:10pm 15 18 mph 1010.8mb 40f
7:00pm 18 20 mph 1010.8mb 40f
6:50pm 18 20 mph 1010.8mb 40f
6:40pm 17 18 mph 1010.8mb 40f
6:30pm 16 20 mph 1010.8mb 39f
6:20pm 16 20 mph 1010.8mb 39f
6:10pm 17 18 mph 1010.8mb 39f
6:00pm 17 18 mph 1010.8mb 39f
5:50pm 17
mph
1010.8mb 38f
5:40pm 17 18 mph 1010.8mb 38f
5:30pm 17 18 mph 1010.8mb 38f
5:20pm 15 16 mph 1011.2mb 38f
5:10pm 14 17 mph 1010.8mb 38f
5:00pm 15 17 mph 1010.8mb 38f
4:50pm 16 18 mph 1010.8mb 38f
4:40pm 16 20 mph 1010.8mb 38f
4:30pm 18 21 mph 1011.2mb 38f
4:20pm 18 23 mph 1011.2mb 38f
4:10pm 20 22 mph 1011.2mb 38f
4:00pm 20 22 mph 1011.2mb 38f
3:50pm 20 21 mph 1010.8mb 38f
3:40pm 18 21 mph 1010.8mb 38f
3:30pm 15 18 mph 1010.8mb 38f
3:20pm 16 17 mph 1010.8mb 38f
3:10pm 18 22 mph 1010.8mb 38f
3:00pm 20 23 mph 1011.2mb 38f
2:50pm 16 21 mph 1010.5mb 38f
2:40pm 21 23 mph 1011.2mb 38f
2:30pm 18 22 mph 1011.2mb 37f
2:20pm 21 24 mph 1010.8mb 38f
2:10pm 18 22 mph 1010.5mb 38f
2:00pm 21 23 mph 1010.8mb 38f
1:50pm 21 25 mph 1011.2mb 37f
1:40pm 23 26 mph 1011.5mb 37f
1:30pm 22 24 mph 1011.2mb 37f
1:20pm 21 23 mph 1011.2mb 37f
1:10pm 18 22 mph 1011.2mb 37f
1:00pm 21 25 mph 1011.5mb 37f
12:50pm 22 24 mph 1011.5mb 37f
12:40pm 22 25 mph 1011.5mb 37f
12:30pm 21 24 mph 1011.5mb 37f
12:20pm 21 24 mph 1011.5mb 37f
12:10pm 22 28 mph 1011.9mb 37f
12:00pm 23 26 mph 1011.9mb 36f
11:50am 23 28 mph 1012.2mb 36f
11:40am 23 25 mph 1012.2mb 36f
11:30am 23 28 mph 1012.5mb 36f
11:20am 24 29 mph 1012.9mb 36f
11:10am 26 29 mph 1012.9mb 36f
11:00am 25 28 mph 1012.9mb 36f
10:50am 24 28 mph 1013.2mb 35f
10:40am 25 28 mph 1013.2mb 35f
10:30am 24 28 mph 1013.5mb 35f
10:20am 24 29 mph 1013.9mb 35f
10:10am 25 29 mph 1013.5mb 35f
10:00am 24 29 mph 1013.9mb 35f
9:50am 25 29 mph 1013.9mb 35f
9:40am 24 29 mph 1013.9mb 34f
9:30am 24 29 mph 1013.9mb 34f
9:20am 24 29 mph 1014.2mb 34f
9:10am 23 28 mph 1014.2mb 34f
9:00am 20 23 mph 1014.6mb 33f
8:50am 18 22 mph 1014.9mb 33f
8:40am 21 24 mph 1015.2mb 33f
8:30am 21 24 mph 1015.2mb 32f
8:20am 22 25 mph 1015.2mb 32f
8:10am 21 24 mph 1015.2mb 32f
8:00am 22 26 mph 1015.2mb 32f
7:50am 23 26 mph 1015.6mb 31f
7:40am 24 28 mph 1015.6mb 31f
7:30am 23 28 mph 1015.9mb 32f
7:20am 23 26 mph 1015.9mb 32f
7:10am 23 29 mph 1015.9mb 32f
7:00am 24 28 mph 1015.9mb 32f
6:50am 25 29 mph 1016.3mb 32f
6:40am 23 26 mph 1016.3mb 31f
6:30am 22 28 mph 1016.3mb 32f
6:20am 24 26 mph 1016.6mb 32f
6:10am 24 26 mph 1016.6mb 31f
6:00am 23 28 mph 1016.6mb 31f
5:50am 23 28 mph 1016.6mb 31f
5:40am 22 28 mph 1016.9mb 31f
5:30am 22 28 mph 1017.3mb 31f
5:20am 22 25 mph 1017.3mb 31f
5:10am 23 25 mph 1017.3mb 31f
5:00am 22 26 mph 1017.3mb 30f
4:50am 22 26 mph 1017.3mb 30f
4:40am 21 25 mph 1017.6mb 30f
4:30am 22 25 mph 1017.9mb 30f
4:20am 23 28 mph 1017.9mb 29f
4:10am 24 29 mph 1018.3mb 29f
4:00am 24 30 mph 1018.3mb 29f
3:50am 24 29 mph 1018.6mb 29f
3:40am 25 29 mph 1018.6mb 29f
3:30am 26 30 mph 1018.6mb 28f
3:20am 26 29 mph 1019mb 28f
3:10am 26 31 mph 1019mb 28f
3:00am 28 31 mph 1019mb 28f
2:50am 25 29 mph 1019.3mb 28f
2:40am 26 30 mph 1019.6mb 27f
2:30am 25 32 mph 1019.6mb 27f
2:20am 26 32 mph 1020mb 26f
2:10am 29 34 mph 1020mb 26f
2:00am 29 34 mph 1020mb 26f
1:50am 26 31 mph 1020.3mb 26f
1:40am 28 33 mph 1020.3mb 26f
1:30am 29 34 mph 1020.7mb 26f
1:20am 29 32 mph 1020.7mb 26f
1:10am 26 31 mph 1021mb 26f
1:00am 28 32 mph 1021mb 26f
12:50am 28 31 mph 1021.3mb 26f
12:40am 29 34 mph 1021.3mb 26f
12:30am 29 34 mph 1021.7mb 26f
12:20am 29 33 mph 1021.7mb 25f
12:10am 31 34 mph 1022mb 26f
12:00am 30 34 mph 1022.4mb 25f
Fri 11/21 11:50pm 29 34 mph 1022.7mb 26f
11:40pm 31 36 mph 1022.7mb 26f
11:30pm 31 36 mph 1022.7mb 26f
11:20pm 28 34 mph 1023mb 26f
11:10pm 30 33 mph 1023.4mb 26f
11:00pm 29 32 mph 1023.4mb 26f
10:50pm 30 33 mph 1023.7mb 25f
10:40pm 28 33 mph 1023.4mb 26f
10:30pm 28 33 mph 1023.4mb 26f
10:20pm 30 33 mph 1023.4mb 25f
10:10pm 29 33 mph 1023.7mb 25f
10:00pm 29 34 mph 1024mb 25f
9:50pm 29 37 mph 1024mb 25f
9:40pm 30 36 mph 1024mb 26f
9:30pm 30 36 mph 1024.7mb 26f
9:20pm 31 36 mph 1024.7mb 26f
9:10pm 32 37 mph 1024.7mb 26f
9:00pm 32 37 mph 1024.7mb 26f
8:50pm 30 32 mph 1024.7mb 26f
8:40pm 29 31 mph 1025.1mb 26f
8:30pm 29 32 mph 1025.1mb 26f
8:20pm 24 30 mph 1025.4mb 27f
8:10pm 25 28 mph 1025.4mb 26f
8:00pm 23 30 mph 1025.4mb 26f
7:50pm 24 29 mph 1025.7mb 26f
7:40pm 23 30 mph 1025.7mb 26f
7:30pm 25 30 mph 1026.1mb 26f
7:20pm 24 29 mph 1026.1mb 26f
7:10pm 25 30 mph 1026.1mb 26f
7:00pm 24 31 mph 1026.4mb 26f
6:50pm 23 28 mph 1026.8mb 26f
6:40pm 25 28 mph 1026.8mb 26f
6:30pm 24 28 mph 1026.8mb 26f
6:20pm 23 26 mph 1026.8mb 26f
6:10pm 25 26 mph 1026.8mb 26f
6:00pm 23 26 mph 1027.1mb 26f
5:50pm 23 26 mph 1027.1mb 26f
5:40pm 23 28 mph 1027.1mb 26f
5:30pm 25 29 mph 1027.4mb 26f
5:20pm 24 29 mph 1027.4mb 26f
5:10pm 24 30 mph 1027.1mb 25f
5:00pm 23 28 mph 1027.1mb 26f
4:50pm 23 26 mph 1027.4mb 26f
4:40pm 22 29 mph 1027.4mb 25f
4:30pm 24 28 mph 1027.8mb 25f
4:20pm 23 26 mph 1027.8mb 26f
4:10pm 23 28 mph 1027.4mb 26f
4:00pm 20 25 mph 1027.4mb 26f
3:50pm 20 25 mph 1027.4mb 26f
3:40pm 21 24 mph 1027.4mb 26f
3:30pm 23 26 mph 1027.4mb 25f
3:20pm 21 24 mph 1027.8mb 25f
3:10pm 21 25 mph 1027.8mb 25f
3:00pm 20 26 mph 1027.8mb 25f
2:50pm 21 25 mph 1027.8mb 25f
2:40pm 20 24 mph 1027.8mb 25f
2:30pm 17 23 mph 1027.8mb 25f
2:20pm 20 23 mph 1027.8mb 25f
2:10pm 18 22 mph 1027.8mb 25f
2:00pm 16 22 mph 1027.8mb 25f
1:50pm 16 23 mph 1027.8mb 25f
1:40pm 18 22 mph 1028.1mb 24f
1:30pm 17 21 mph 1028.1mb 24f
1:20pm 15 20 mph 1028.1mb 24f
1:10pm 16 21 mph 1028.4mb 24f
1:00pm 17 21 mph 1028.4mb 24f
12:50pm 18 21 mph 1028.4mb 24f
12:40pm 14 18 mph 1028.4mb 23f
12:30pm 15 20 mph 1028.8mb 23f
12:20pm 16 18 mph 1028.8mb 23f
12:10pm 16 21 mph 1028.8mb 23f
12:00pm 15 21 mph 1028.8mb 23f
11:50am 15 18 mph 1028.8mb 22f
11:40am 16 20 mph 1029.1mb 22f
11:30am 16 21 mph 1029.1mb 22f
11:20am 15 20 mph 1029.1mb 22f
11:10am 15 20 mph 1028.8mb 22f
11:00am 15 20 mph 1029.1mb 21f
10:50am 14 17 mph 1028.8mb 22f
10:40am 14 18 mph 1029.1mb 21f
10:30am 14 17 mph 1029.1mb 20f
10:20am 16 18 mph 1029.1mb 20f
10:10am 15 18 mph 1029.1mb 20f
10:00am 16 18 mph 1028.8mb 20f
9:50am 16 18 mph 1029.1mb 19f
9:40am 16 22 mph 1028.8mb 19f
9:30am 17 21 mph 1028.8mb 19f
9:20am 17 21 mph 1028.8mb 19f
9:10am 18 22 mph 1028.4mb 19f
9:00am 17 21 mph 1028.4mb 18f
8:50am 17 21 mph 1028.4mb 18f
8:40am 18 22 mph 1028.4mb 18f
8:30am 18 21 mph 1028.4mb 18f
8:20am 17 21 mph 1028.1mb 18f
8:10am 18 22 mph 1028.1mb 18f
8:00am 18 21 mph 1027.8mb 18f
7:50am 18 21 mph 1027.8mb 18f
7:40am 18 23 mph 1027.4mb 18f
7:30am 18 21 mph 1027.8mb 17f
7:20am 16 20 mph 1027.4mb 17f
7:10am 17 21 mph 1027.4mb 18f
7:00am 18 22 mph 1027.1mb 18f
6:50am 18 22 mph 1027.1mb 18f
6:40am 17 22 mph 1026.8mb 17f
6:30am 18 22 mph 1027.1mb 18f
6:20am 17 21 mph 1026.8mb 18f
6:10am 17 21 mph 1026.4mb 18f
6:00am 18 23 mph 1026.4mb 17f
5:50am 20 23 mph 1026.4mb 17f
5:40am 20 23 mph 1026.1mb 18f
5:30am 18 21 mph 1026.1mb 18f
5:20am 17 21 mph 1026.1mb 17f
5:10am 17 21 mph 1025.7mb 18f
5:00am 18 21 mph 1025.7mb 17f
4:50am 17 20 mph 1025.4mb 18f
4:40am 17 20 mph 1025.4mb 17f
4:30am 18 22 mph 1025.1mb 17f
4:20am 18 22 mph 1025.1mb 17f
4:10am 18 23 mph 1025.1mb 18f
4:00am 21 24 mph 1024.7mb 18f
3:50am 21 24 mph 1024.4mb 17f
3:40am 18 22 mph 1024.4mb 17f
3:30am 18 22 mph 1024.4mb 17f
3:20am 20 24 mph 1024mb 17f
3:10am 21 25 mph 1024mb 17f
3:00am 22 24 mph 1023.7mb 17f
2:50am 18 23 mph 1023.7mb 17f
2:40am 21 23 mph 1023.4mb 18f
2:30am 20 23 mph 1023.4mb 18f
2:20am 21 23 mph 1023.4mb 18f
2:10am 20 24 mph 1023mb 17f
2:00am 20 24 mph 1022.7mb 17f
1:50am 21 23 mph 1022.7mb 17f
1:40am 21 24 mph 1022.4mb 18f
1:30am 20 24 mph 1022.4mb 17f
1:20am 21 24 mph 1022mb 17f
1:10am 21 25 mph 1022mb 17f
1:00am 22 26 mph 1021.7mb 17f
12:50am 22 26 mph 1021.3mb 17f
12:40am 24 28 mph 1021.3mb 17f
12:30am 22 28 mph 1021mb 18f
12:20am 24 28 mph 1021mb 17f
12:10am 23 28 mph 1020.7mb 17f
12:00am 24 28 mph 1020.7mb 18f
Thu 11/20 11:50pm 24 28 mph 1020.3mb 18f
11:40pm 24 29 mph 1020.3mb 18f
11:30pm 24 26 mph 1020mb 18f
11:20pm 23 28 mph 1019.6mb 18f
11:10pm 24 28 mph 1019.6mb 18f
11:00pm 23 28 mph 1019.6mb 18f
10:50pm 24 29 mph 1019.3mb 19f
10:40pm 23 30 mph 1019mb 18f
10:30pm 24 28 mph 1019mb 18f
10:20pm 23 26 mph 1018.6mb 18f
10:10pm 24 29 mph 1018.6mb 19f
10:00pm 22 30 mph 1018.3mb 19f
9:50pm 25 29 mph 1018.3mb 19f
9:40pm 24 28 mph 1018.3mb 19f
9:30pm 24 28 mph 1018.3mb 19f
9:20pm 23 29 mph 1017.9mb 19f
9:10pm 23 28 mph 1017.9mb 19f
9:00pm 23 28 mph 1017.9mb 19f
8:50pm 23 26 mph 1017.6mb 19f
8:40pm 23 28 mph 1017.6mb 19f
8:30pm 22 29 mph 1017.6mb 19f
8:20pm 24 29 mph 1017.3mb 19f
8:10pm 24 30 mph 1017.3mb 20f
8:00pm 26 32 mph 1016.9mb 19f
7:50pm 25 32 mph 1016.9mb 20f
7:40pm 26 30 mph 1016.9mb 20f
7:30pm 24 31 mph 1016.9mb 20f
7:20pm 26 31 mph 1016.6mb 20f
7:10pm 25 33 mph 1016.6mb 21f
7:00pm 23 30 mph 1016.6mb 21f
6:50pm 25 29 mph 1016.3mb 20f
6:40pm 24 30 mph 1016.3mb 21f
6:30pm 25 31 mph 1015.9mb 20f
6:20pm 25 32 mph 1015.9mb 20f
6:10pm 26 31 mph 1015.9mb 21f
6:00pm 23 32 mph 1015.6mb 21f
5:50pm 26 30 mph 1015.2mb 21f
5:40pm 25 30 mph 1015.2mb 21f
5:30pm 24 30 mph 1014.9mb 22f
5:20pm 26 32 mph 1014.9mb 21f
5:10pm 28 36 mph 1014.6mb 22f
5:00pm 29 36 mph 1014.2mb 22f
4:50pm 29 33 mph 1014.2mb 22f
4:40pm 26 32 mph 1013.9mb 22f
4:30pm 25 30 mph 1013.9mb 22f
4:20pm 25 33 mph 1013.9mb 22f
4:10pm 28 34 mph 1013.2mb 23f
4:00pm 26 33 mph 1012.9mb 23f
3:50pm 25 32 mph 1012.9mb 22f
3:40pm 24 30 mph 1012.9mb 23f
3:30pm 25 33 mph 1012.5mb 23f
3:20pm 26 33 mph 1012.2mb 24f
3:10pm 18 26 mph 1012.2mb 23f
3:00pm 23 31 mph 1011.9mb 22f
2:50pm 25 28 mph 1011.9mb 22f
2:40pm 26 31 mph 1011.9mb 22f
2:30pm 25 31 mph 1011.2mb 23f
2:20pm 26 33 mph 1011.5mb 23f
2:10pm 26 33 mph 1011.2mb 23f
2:00pm 22 29 mph 1010.8mb 23f
1:50pm 24 32 mph 1011.2mb 22f
1:40pm 29 34 mph 1010.8mb 22f
1:30pm 25 34 mph 1010.2mb 23f
1:20pm 29 34 mph 1010.2mb 23f
1:10pm 24 33 mph 1010.5mb 24f
1:00pm 25 36 mph 1010.5mb 23f
12:50pm 28 38 mph 1010.2mb 24f
12:40pm 28 36 mph 1009.8mb 23f
12:30pm 28 38 mph 1010.2mb 23f
12:20pm 33 38 mph 1009.8mb 23f
12:10pm 29 36 mph 1009.8mb 23f
12:00pm 29 34 mph 1009.8mb 23f
11:50am 26 37 mph 1010.2mb 22f
11:40am 28 38 mph 1009.8mb 24f
11:30am 28 34 mph 1009.8mb 23f
11:20am 29 34 mph 1009.8mb 23f
11:10am 31 36 mph 1009.5mb 22f
11:00am 28 34 mph 1009.5mb 23f
10:50am 25 36 mph 1009.8mb 23f
10:40am 30 33 mph 1009.5mb 23f
10:30am 28 36 mph 1009.8mb 24f
10:20am 29 36 mph 1009.1mb 23f
10:10am 28 34 mph 1009.8mb 22f
10:00am 29 37 mph 1009.8mb 22f
9:50am 26 32 mph 1009.8mb 22f
9:40am 26 32 mph 1009.8mb 23f
9:30am 25 32 mph 1009.5mb 23f
9:20am 28 33 mph 1009.5mb 22f
9:10am 25 32 mph 1009.5mb 23f
9:00am 25 31 mph 1009.5mb 23f
8:50am 24 37 mph 1009.5mb 22f
8:40am 28 34 mph 1009.5mb 22f
8:30am 29 33 mph 1009.1mb 22f
8:20am 26 34 mph 1009.1mb 23f
8:10am 29 36 mph 1009.1mb 21f
8:00am 29 36 mph 1009.1mb 22f
7:50am 30 37 mph 1008.8mb 22f
7:40am 29 33 mph 1008.8mb 22f
7:30am 28 34 mph 1008.8mb 22f
7:20am 30 36 mph 1008.5mb 22f
7:10am 29 34 mph 1008.5mb 22f
7:00am 30 37 mph 1008.1mb 22f
6:50am 28 33 mph 1008.8mb 22f
6:40am 25 34 mph 1008.8mb 22f
6:30am 28 32 mph 1008.5mb 22f
6:20am 28 32 mph 1008.5mb 22f
6:10am 26 32 mph 1008.5mb 23f
6:00am 29 34 mph 1008.5mb 22f
5:50am 29 36 mph 1008.1mb 23f
5:40am 29 34 mph 1008.1mb 22f
5:30am 28 33 mph 1008.5mb 22f
5:20am 28 33 mph 1008.1mb 22f
5:10am 29 36 mph 1007.8mb 23f
5:00am 26 33 mph 1007.8mb 22f
4:50am 29 36 mph 1008.1mb 22f
4:40am 28 37 mph 1007.8mb 23f
4:30am 30 39 mph 1007.5mb 23f
4:20am 30 36 mph 1007.5mb 23f
4:10am 31 38 mph 1007.8mb 22f
4:00am 32 38 mph 1007.5mb 22f
3:50am 31 40 mph 1007.1mb 23f
3:40am 34 44 mph 1007.5mb 23f
3:30am 31 39 mph 1007.1mb 23f
3:20am 32 38 mph 1007.5mb 23f
3:10am 33 37 mph 1007.1mb 23f
3:00am 30 38 mph 1007.1mb 23f
2:50am 34 38 mph 1007.1mb 22f
2:40am 31 36 mph 1007.1mb 22f
2:30am 32 43 mph 1007.1mb 23f
2:20am 31 39 mph 1007.1mb 23f
2:10am 31 41 mph 1006.8mb 24f
2:00am 34 40 mph 1007.1mb 23f
1:50am 33 40 mph 1007.1mb 23f
1:40am 32 39 mph 1006.8mb 24f
1:30am 34 39 mph 1006.4mb 23f
1:20am 32 38 mph 1006.8mb 23f
1:10am 30 38 mph 1007.1mb 23f
1:00am 32 39 mph 1006.8mb 23f
12:50am 31 40 mph 1006.1mb 23f
12:40am 33 37 mph 1006.4mb 23f
12:30am 32 38 mph 1006.4mb 23f
12:20am 31 40 mph 1006.8mb 24f
12:10am 34 40 mph 1006.4mb 23f
12:00am 32 41 mph 1006.1mb 24f
Wed 11/19 11:50pm 32 39 mph 1006.8mb 24f
11:40pm 34 39 mph 1006.4mb 24f
11:30pm 32 40 mph 1006.1mb 24f
11:20pm 34 39 mph 1006.4mb 24f
11:10pm 33 39 mph 1005.8mb 24f
11:00pm 32 39 mph 1006.4mb 24f
10:50pm 31 41 mph 1006.4mb 24f
10:40pm 33 38 mph 1006.1mb 24f
10:30pm 33 39 mph 1005.8mb 24f
10:20pm 33 41 mph 1005.8mb 24f
10:10pm 32 41 mph 1005.4mb 24f
10:00pm 32 37 mph 1005.8mb 25f
9:50pm 34 39 mph 1005.8mb 24f
9:40pm 33 40 mph 1005.4mb 24f
9:30pm 32 38 mph 1005.8mb 25f
9:20pm 31 36 mph 1005.4mb 25f
9:10pm 31 40 mph 1005.4mb 25f
9:00pm 31 36 mph 1005.4mb 25f
8:50pm 30 34 mph 1005.4mb 25f
8:40pm 30 34 mph 1005.4mb 25f
8:30pm 28 37 mph 1005.1mb 25f
8:20pm 33 38 mph 1005.1mb 25f
8:10pm 28 36 mph 1005.4mb 25f
8:00pm 33 41 mph 1005.1mb 25f
7:50pm 29 37 mph 1005.1mb 25f
7:40pm 31 37 mph 1005.1mb 25f
7:30pm 33 40 mph 1004.7mb 25f
7:20pm 31 34 mph 1004.7mb 25f
7:10pm 31 40 mph 1004.7mb 25f
7:00pm 37 41 mph 1004.4mb 26f
6:50pm 31 41 mph 1004.7mb 26f
6:40pm 32 40 mph 1004.7mb 26f
6:30pm 32 40 mph 1004.4mb 26f
6:20pm 29 38 mph 1004.1mb 26f
6:10pm 30 34 mph 1003.7mb 26f
6:00pm 30 36 mph 1003.7mb 26f
5:50pm 32 37 mph 1003.7mb 26f
5:40pm 32 39 mph 1003.4mb 26f
5:30pm 33 37 mph 1003mb 26f
5:20pm 31 36 mph 1003.4mb 26f
5:10pm 31 34 mph 1003mb 27f
5:00pm 26 33 mph 1003.4mb 26f
4:50pm 29 33 mph 1003.4mb 26f
4:40pm 26 32 mph 1003.4mb 26f
4:30pm 24 29 mph 1003.4mb 26f
4:20pm 24 29 mph 1003.4mb 25f
4:10pm 24 30 mph 1003.4mb 25f
4:00pm 25 29 mph 1003.4mb 25f
3:50pm 22 28 mph 1003.4mb 25f
3:40pm 24 29 mph 1003.4mb 25f
3:30pm 24 30 mph 1003.4mb 25f
3:20pm 25 29 mph 1003.4mb 24f
3:10pm 25 30 mph 1003.4mb 24f
3:00pm 26 31 mph 1003.7mb 24f
2:50pm 24 32 mph 1003.7mb 24f